createdAt,value
2022-11-09T00:00:40.140Z,96694.41
2022-11-09T00:03:07.093Z,96695.13
2022-11-09T00:05:33.942Z,96699.19
2022-11-09T00:08:00.636Z,96705.44
2022-11-09T00:10:27.548Z,96718.53
2022-11-09T00:12:54.225Z,96703.31
2022-11-09T00:15:20.949Z,96701.88
2022-11-09T00:17:47.627Z,96714.28
2022-11-09T00:20:14.439Z,96710.09
2022-11-09T00:22:41.065Z,96706.00
2022-11-09T00:25:08.347Z,96698.34
2022-11-09T00:27:35.020Z,96686.56
2022-11-09T00:30:01.833Z,96692.00
2022-11-09T00:32:28.486Z,96698.88
2022-11-09T00:34:55.227Z,96687.81
2022-11-09T00:37:21.891Z,96698.16
2022-11-09T00:39:48.639Z,96706.44
2022-11-09T00:42:15.369Z,96709.91
2022-11-09T00:44:42.122Z,96716.75
2022-11-09T00:47:09.934Z,96714.00
2022-11-09T00:49:36.711Z,96712.56
2022-11-09T00:52:03.430Z,96719.44
2022-11-09T00:54:30.186Z,96722.19
2022-11-09T00:56:56.918Z,96721.47
2022-11-09T00:59:23.813Z,96730.41
2022-11-09T01:01:50.449Z,96733.16
2022-11-09T01:04:18.532Z,96711.72
2022-11-09T01:06:45.268Z,96719.28
2022-11-09T01:09:12.630Z,96717.84
2022-11-09T01:11:39.323Z,96723.34
2022-11-09T01:14:06.060Z,96709.56
2022-11-09T01:16:32.776Z,96704.69
2022-11-09T01:19:00.243Z,96711.53
2022-11-09T01:21:27.822Z,96701.84
2022-11-09T01:23:55.309Z,96705.94
2022-11-09T01:26:22.351Z,96711.44
2022-11-09T01:28:51.062Z,96703.81
2022-11-09T01:31:19.581Z,96701.03
2022-11-09T01:33:46.566Z,96690.66
2022-11-09T01:36:18.436Z,96691.28
2022-11-09T01:38:45.539Z,96682.28
2022-11-09T01:41:17.674Z,96690.47
2022-11-09T01:43:45.128Z,96699.47
2022-11-09T01:46:21.391Z,96702.16
2022-11-09T01:48:51.977Z,96687.66
2022-11-09T01:51:28.504Z,96688.34
2022-11-09T01:54:14.472Z,96677.84
2022-11-09T01:56:43.514Z,96675.09
2022-11-09T01:59:14.466Z,96675.03
2022-11-09T02:01:42.173Z,96666.75
2022-11-09T02:04:31.655Z,96662.56
2022-11-09T02:06:58.976Z,96655.63
2022-11-09T02:09:34.915Z,96643.16
2022-11-09T02:12:01.817Z,96639.00
2022-11-09T02:14:29.678Z,96628.59
2022-11-09T02:16:56.701Z,96629.19
2022-11-09T02:19:23.359Z,96630.66
2022-11-09T02:21:50.337Z,96636.16
2022-11-09T02:24:18.299Z,96627.78
2022-11-09T02:26:48.737Z,96635.34
2022-11-09T02:29:23.018Z,96638.03
2022-11-09T02:31:56.204Z,96629.78
2022-11-09T02:34:24.410Z,96624.25
2022-11-09T02:36:51.081Z,96620.06
2022-11-09T02:39:24.054Z,96616.63
2022-11-09T02:42:03.118Z,96626.22
2022-11-09T02:44:37.836Z,96619.28
2022-11-09T02:47:04.682Z,96625.50
2022-11-09T02:49:31.346Z,96620.63
2022-11-09T02:51:58.078Z,96620.63
2022-11-09T02:54:32.066Z,96621.25
2022-11-09T02:57:00.542Z,96611.63
2022-11-09T02:59:28.007Z,96608.16
2022-11-09T03:01:54.969Z,96610.94
2022-11-09T03:04:21.962Z,96601.94
2022-11-09T03:06:49.541Z,96618.50
2022-11-09T03:09:20.066Z,96612.28
2022-11-09T03:11:46.811Z,96606.75
2022-11-09T03:14:15.581Z,96607.47
2022-11-09T03:16:50.780Z,96606.13
2022-11-09T03:19:18.575Z,96612.34
2022-11-09T03:21:47.468Z,96604.69
2022-11-09T03:24:14.313Z,96608.88
2022-11-09T03:26:41.900Z,96615.75
2022-11-09T03:29:09.181Z,96612.97
2022-11-09T03:31:36.515Z,96616.44
2022-11-09T03:34:06.394Z,96613.06
2022-11-09T03:36:35.498Z,96610.94
2022-11-09T03:39:02.223Z,96608.16
2022-11-09T03:41:29.140Z,96617.16
2022-11-09T03:43:55.852Z,96617.78
2022-11-09T03:46:22.659Z,96619.81
2022-11-09T03:48:49.479Z,96619.09
2022-11-09T03:51:16.243Z,96617.06
2022-11-09T03:53:42.890Z,96619.81
2022-11-09T03:56:09.618Z,96615.63
2022-11-09T03:58:36.257Z,96621.16
2022-11-09T04:01:02.995Z,96619.81
2022-11-09T04:03:29.626Z,96647.38
2022-11-09T04:05:58.961Z,96660.47
2022-11-09T04:08:25.743Z,96665.28
2022-11-09T04:10:52.486Z,96654.97
2022-11-09T04:13:19.411Z,96645.97
2022-11-09T04:15:46.307Z,96643.22
2022-11-09T04:18:14.110Z,96644.63
2022-11-09T04:20:41.456Z,96645.25
2022-11-09T04:23:11.167Z,96648.03
2022-11-09T04:25:39.582Z,96655.66
2022-11-09T04:28:07.522Z,96659.75
2022-11-09T04:30:36.212Z,96673.56
2022-11-09T04:33:03.065Z,96675.59
2022-11-09T04:35:30.902Z,96680.41
2022-11-09T04:37:59.450Z,96683.88
2022-11-09T04:40:27.814Z,96708.69
2022-11-09T04:42:54.742Z,96730.06
2022-11-09T04:45:22.247Z,96743.13
2022-11-09T04:47:49.098Z,96738.97
2022-11-09T04:50:15.927Z,96726.41
2022-11-09T04:52:42.672Z,96735.94
2022-11-09T04:55:09.436Z,96737.25
2022-11-09T04:57:36.186Z,96734.50
2022-11-09T05:00:03.925Z,96729.72
2022-11-09T05:02:30.630Z,96707.75
2022-11-09T05:04:57.296Z,96704.97
2022-11-09T05:07:24.022Z,96707.03
2022-11-09T05:09:50.679Z,96709.78
2022-11-09T05:12:17.624Z,96705.63
2022-11-09T05:14:44.290Z,96709.06
2022-11-09T05:17:10.969Z,96699.38
2022-11-09T05:19:37.551Z,96704.16
2022-11-09T05:22:22.804Z,96695.81
2022-11-09T05:24:51.834Z,96704.81
2022-11-09T05:27:18.668Z,96709.59
2022-11-09T05:29:45.386Z,96717.16
2022-11-09T05:32:12.082Z,96721.34
2022-11-09T05:34:38.760Z,96726.16
2022-11-09T05:37:05.521Z,96731.66
2022-11-09T05:39:32.153Z,96732.38
2022-11-09T05:41:58.897Z,96739.22
2022-11-09T05:44:25.830Z,96737.19
2022-11-09T05:46:52.517Z,96740.56
2022-11-09T05:49:19.178Z,96731.59
2022-11-09T05:51:45.920Z,96739.22
2022-11-09T05:54:12.767Z,96744.66
2022-11-09T05:56:39.751Z,96739.22
2022-11-09T05:59:06.495Z,96736.41
2022-11-09T06:01:33.251Z,96733.72
2022-11-09T06:03:59.915Z,96740.47
2022-11-09T06:06:26.908Z,96739.88
2022-11-09T06:08:53.606Z,96732.91
2022-11-09T06:11:23.863Z,96726.69
2022-11-09T06:13:51.014Z,96731.22
2022-11-09T06:16:17.676Z,96740.66
2022-11-09T06:18:44.465Z,96727.38
2022-11-09T06:21:11.236Z,96736.28
2022-11-09T06:23:38.002Z,96732.31
2022-11-09T06:26:07.019Z,96737.63
2022-11-09T06:28:34.732Z,96731.31
2022-11-09T06:31:02.752Z,96724.44
2022-11-09T06:33:33.968Z,96735.50
2022-11-09T06:36:01.134Z,96740.53
2022-11-09T06:38:27.862Z,96742.03
2022-11-09T06:40:56.041Z,96734.81
2022-11-09T06:43:23.588Z,96738.59
2022-11-09T06:45:50.986Z,96741.25
2022-11-09T06:48:18.065Z,96752.19
2022-11-09T06:50:45.144Z,96747.19
2022-11-09T06:53:13.646Z,96755.94
2022-11-09T06:55:43.401Z,96753.63
2022-11-09T06:58:16.005Z,96755.47
2022-11-09T07:00:43.684Z,96756.78
2022-11-09T07:03:16.603Z,96762.38
2022-11-09T07:05:43.579Z,96765.25
2022-11-09T07:08:10.451Z,96756.28
2022-11-09T07:10:37.341Z,96768.00
2022-11-09T07:13:04.644Z,96760.97
2022-11-09T07:15:32.012Z,96769.03
2022-11-09T07:18:02.319Z,96772.78
2022-11-09T07:20:30.448Z,96769.81
2022-11-09T07:22:57.217Z,96767.78
2022-11-09T07:25:25.250Z,96772.47
2022-11-09T07:27:52.005Z,96766.97
2022-11-09T07:30:19.063Z,96776.22
2022-11-09T07:35:32.602Z,96785.09
2022-11-09T07:38:01.318Z,96780.94
2022-11-09T07:40:28.149Z,96776.34
2022-11-09T07:42:59.186Z,96777.88
2022-11-09T07:45:26.086Z,96780.13
2022-11-09T07:48:00.994Z,96777.78
2022-11-09T07:50:29.197Z,96782.78
2022-11-09T07:52:57.283Z,96783.69
2022-11-09T07:55:24.789Z,96785.94
2022-11-09T07:58:02.620Z,96779.22
2022-11-09T08:00:31.314Z,96780.09
2022-11-09T08:02:58.084Z,96783.06
2022-11-09T08:05:24.981Z,96781.00
2022-11-09T08:07:59.004Z,96780.41
2022-11-09T08:10:27.519Z,96788.97
2022-11-09T08:12:58.910Z,96788.63
2022-11-09T08:15:26.409Z,96788.91
2022-11-09T08:17:53.247Z,96785.56
2022-11-09T08:20:20.489Z,96792.78
2022-11-09T08:22:47.617Z,96800.69
2022-11-09T08:25:15.545Z,96801.44
2022-11-09T08:27:42.428Z,96806.41
2022-11-09T08:30:17.873Z,96809.44
2022-11-09T08:32:45.458Z,96818.16
2022-11-09T08:35:17.843Z,96814.38
2022-11-09T08:37:46.863Z,96819.97
2022-11-09T08:40:16.073Z,96823.63
2022-11-09T08:42:42.927Z,96818.41
2022-11-09T08:45:10.226Z,96825.44
2022-11-09T08:47:38.691Z,96833.19
2022-11-09T08:50:06.985Z,96839.72
2022-11-09T08:52:34.721Z,96828.78
2022-11-09T08:55:01.447Z,96821.72
2022-11-09T08:57:28.784Z,96829.84
2022-11-09T08:59:55.442Z,96834.38
2022-11-09T09:02:22.442Z,96834.66
2022-11-09T09:04:49.128Z,96830.75
2022-11-09T09:07:15.850Z,96837.25
2022-11-09T09:09:42.558Z,96833.16
2022-11-09T09:12:09.908Z,96837.25
2022-11-09T09:14:37.515Z,96838.75
2022-11-09T09:17:04.357Z,96843.03
2022-11-09T09:19:32.035Z,96843.19
2022-11-09T09:21:59.533Z,96837.16
2022-11-09T09:24:27.021Z,96837.16
2022-11-09T09:26:54.055Z,96838.56
2022-11-09T09:29:20.894Z,96834.66
2022-11-09T09:31:47.637Z,96833.50
2022-11-09T09:34:14.621Z,96836.50
2022-11-09T09:36:46.463Z,96832.69
2022-11-09T09:39:14.718Z,96837.94
2022-11-09T09:41:51.504Z,96827.75
2022-11-09T09:44:28.967Z,96835.50
2022-11-09T09:47:12.618Z,96841.31
2022-11-09T09:49:42.791Z,96841.31
2022-11-09T09:52:23.173Z,96851.81
2022-11-09T09:55:15.156Z,96847.19
2022-11-09T09:57:43.249Z,96860.09
2022-11-09T10:00:21.400Z,96859.84
2022-11-09T10:02:49.519Z,96871.38
2022-11-09T10:05:16.747Z,96858.84
2022-11-09T10:08:23.958Z,96863.09
2022-11-09T10:11:02.238Z,96861.91
2022-11-09T10:13:55.505Z,96867.31
2022-11-09T10:16:35.716Z,96865.63
2022-11-09T10:19:26.571Z,96868.38
2022-11-09T10:21:58.624Z,96870.31
2022-11-09T10:25:18.951Z,96874.06
2022-11-09T10:27:54.475Z,96873.44
2022-11-09T10:30:22.916Z,96869.88
2022-11-09T10:32:56.135Z,96875.31
2022-11-09T10:35:38.808Z,96874.25
2022-11-09T10:38:15.253Z,96866.78
2022-11-09T10:40:54.815Z,96856.81
2022-11-09T10:43:40.920Z,96861.31
2022-11-09T10:46:26.774Z,96855.88
2022-11-09T10:49:20.850Z,96847.69
2022-11-09T10:52:27.069Z,96855.88
2022-11-09T10:55:29.301Z,96857.75
2022-11-09T10:58:34.847Z,96868.47
2022-11-09T11:01:24.867Z,96870.59
2022-11-09T11:04:21.251Z,96872.56
2022-11-09T11:07:21.396Z,96883.84
2022-11-09T11:10:16.733Z,96888.59
2022-11-09T11:13:01.944Z,96894.63
2022-11-09T11:15:47.893Z,96888.34
2022-11-09T11:18:34.454Z,96892.59
2022-11-09T11:21:22.698Z,96894.09
2022-11-09T11:24:19.612Z,96891.53
2022-11-09T11:27:10.539Z,96888.56
2022-11-09T11:30:28.575Z,96888.41
2022-11-09T11:33:15.238Z,96897.06
2022-11-09T11:36:37.159Z,96894.47
2022-11-09T11:39:37.348Z,96898.72
2022-11-09T11:42:45.472Z,96890.88
2022-11-09T11:45:42.855Z,96889.31
2022-11-09T11:48:59.266Z,96885.75
2022-11-09T11:52:01.930Z,96897.72
2022-11-09T11:54:56.053Z,96895.97
2022-11-09T11:58:01.540Z,96893.31
2022-11-09T12:01:16.986Z,96891.78
2022-11-09T12:04:50.099Z,96892.59
2022-11-09T12:07:57.205Z,96896.22
2022-11-09T12:10:57.898Z,96893.19
2022-11-09T12:13:50.213Z,96885.91
2022-11-09T12:16:59.967Z,96893.22
2022-11-09T12:20:16.447Z,96900.41
2022-11-09T12:23:13.359Z,96891.81
2022-11-09T12:26:01.952Z,96895.91
2022-11-09T12:28:56.066Z,96893.47
2022-11-09T12:32:08.327Z,96896.66
2022-11-09T12:35:10.911Z,96896.47
2022-11-09T12:38:16.000Z,96899.06
2022-11-09T12:41:06.420Z,96895.41
2022-11-09T12:44:02.360Z,96898.88
2022-11-09T12:46:56.409Z,96898.41
2022-11-09T12:49:44.529Z,96893.44
2022-11-09T12:52:30.128Z,96896.28
2022-11-09T12:55:17.574Z,96895.91
2022-11-09T12:58:04.335Z,96896.41
2022-11-09T13:00:53.008Z,96892.53
2022-11-09T13:03:54.583Z,96899.03
2022-11-09T13:06:39.980Z,96899.84
2022-11-09T13:09:27.824Z,96897.09
2022-11-09T13:12:29.821Z,96898.63
2022-11-09T13:15:22.908Z,96892.66
2022-11-09T13:18:51.410Z,96899.31
2022-11-09T13:21:38.058Z,96896.03
2022-11-09T13:24:34.254Z,96892.03
2022-11-09T13:27:39.857Z,96886.78
2022-11-09T13:30:25.138Z,96885.38
2022-11-09T13:33:16.450Z,96879.03
2022-11-09T13:36:07.604Z,96889.09
2022-11-09T13:39:31.401Z,96890.06
2022-11-09T13:42:28.627Z,96888.63
2022-11-09T13:45:33.473Z,96873.22
2022-11-09T13:48:46.971Z,96856.41
2022-11-09T13:51:35.079Z,96846.66
2022-11-09T13:54:42.827Z,96837.47
2022-11-09T13:57:28.489Z,96840.94
2022-11-09T14:00:23.459Z,96862.75
2022-11-09T14:03:26.647Z,96870.66
2022-11-09T14:06:12.574Z,96879.88
2022-11-09T14:08:59.250Z,96880.88
2022-11-09T14:11:54.002Z,96884.81
2022-11-09T14:14:57.678Z,96884.31
2022-11-09T14:18:19.526Z,96882.34
2022-11-09T14:21:42.547Z,96887.28
2022-11-09T14:24:34.339Z,96879.81
2022-11-09T14:27:23.015Z,96879.16
2022-11-09T14:30:21.475Z,96876.69
2022-11-09T14:33:27.412Z,96879.75
2022-11-09T14:36:13.449Z,96883.31
2022-11-09T14:39:01.571Z,96884.63
2022-11-09T14:41:46.577Z,96886.69
2022-11-09T14:44:40.366Z,96901.09
2022-11-09T14:47:33.400Z,96906.41
2022-11-09T14:50:31.092Z,96906.94
2022-11-09T14:53:22.587Z,96900.50
2022-11-09T14:56:11.093Z,96922.47
2022-11-09T14:58:58.349Z,96926.38
2022-11-09T15:02:06.553Z,96944.13
2022-11-09T15:04:51.793Z,96937.78
2022-11-09T15:07:37.161Z,96935.53
2022-11-09T15:10:24.152Z,96946.00
2022-11-09T15:13:09.447Z,96946.53
2022-11-09T15:15:55.174Z,96954.28
2022-11-09T15:18:44.733Z,96955.50
2022-11-09T15:21:34.573Z,96963.78
2022-11-09T15:24:20.772Z,96958.38
2022-11-09T15:27:33.043Z,96956.44
2022-11-09T15:30:40.831Z,96964.78
2022-11-09T15:33:45.894Z,96961.53
2022-11-09T15:36:33.697Z,96975.09
2022-11-09T15:39:20.537Z,96972.97
2022-11-09T15:42:05.859Z,96972.34
2022-11-09T15:44:53.553Z,96971.00
2022-11-09T15:47:39.802Z,96971.00
2022-11-09T15:50:26.776Z,96971.53
2022-11-09T15:53:12.919Z,96967.94
2022-11-09T15:55:58.759Z,96973.47
2022-11-09T15:58:44.821Z,96977.31
2022-11-09T16:01:32.937Z,96978.75
2022-11-09T16:04:18.773Z,96984.53
2022-11-09T16:07:04.606Z,96988.13
2022-11-09T16:09:50.251Z,96993.13
2022-11-09T16:12:39.446Z,96990.47
2022-11-09T16:15:26.794Z,97004.44
2022-11-09T16:18:11.833Z,96998.09
2022-11-09T16:20:57.283Z,97002.91
2022-11-09T16:23:42.653Z,97016.75
2022-11-09T16:26:28.258Z,97012.47
2022-11-09T16:29:13.634Z,97009.00
2022-11-09T16:31:58.746Z,97015.72
2022-11-09T16:34:44.179Z,97025.91
2022-11-09T16:37:36.131Z,97027.97
2022-11-09T16:40:21.740Z,97034.88
2022-11-09T16:43:07.151Z,97037.50
2022-11-09T16:45:52.460Z,97035.16
2022-11-09T16:48:38.373Z,97050.38
2022-11-09T16:51:23.724Z,97043.63
2022-11-09T16:54:08.902Z,97059.34
2022-11-09T16:56:54.898Z,97057.50
2022-11-09T16:59:40.651Z,97062.41
2022-11-09T17:02:26.629Z,97064.66
2022-11-09T17:05:11.739Z,97076.81
2022-11-09T17:07:57.071Z,97073.03
2022-11-09T17:10:44.263Z,97073.38
2022-11-09T17:13:29.834Z,97079.28
2022-11-09T17:16:16.873Z,97088.59
2022-11-09T17:19:01.979Z,97092.38
2022-11-09T17:21:47.426Z,97092.56
2022-11-09T17:24:33.615Z,97102.47
2022-11-09T17:27:18.930Z,97102.69
2022-11-09T17:30:06.394Z,97099.44
2022-11-09T17:32:53.197Z,97106.59
2022-11-09T17:35:38.347Z,97113.63
2022-11-09T17:38:23.915Z,97113.84
2022-11-09T17:41:14.401Z,97118.84
2022-11-09T17:44:03.407Z,97132.09
2022-11-09T17:46:48.760Z,97132.94
2022-11-09T17:49:34.140Z,97135.78
2022-11-09T17:52:19.466Z,97142.72
2022-11-09T17:55:05.185Z,97151.09
2022-11-09T17:57:50.281Z,97148.44
2022-11-09T18:00:35.569Z,97147.84
2022-11-09T18:03:20.980Z,97149.97
2022-11-09T18:06:14.375Z,97161.13
2022-11-09T18:09:34.259Z,97157.78
2022-11-09T18:12:05.384Z,97168.19
2022-11-09T18:14:50.458Z,97172.34
2022-11-09T18:17:35.686Z,97166.22
2022-11-09T18:20:20.892Z,97177.25
2022-11-09T18:23:06.378Z,97177.97
2022-11-09T18:25:58.784Z,97188.41
2022-11-09T18:28:44.348Z,97186.44
2022-11-09T18:31:29.751Z,97188.50
2022-11-09T18:34:15.383Z,97196.84
2022-11-09T18:37:00.899Z,97203.81
2022-11-09T18:39:47.291Z,97205.25
2022-11-09T18:42:32.966Z,97213.50
2022-11-09T18:45:18.123Z,97206.66
2022-11-09T18:48:03.664Z,97216.34
2022-11-09T18:50:54.659Z,97218.41
2022-11-09T18:53:44.211Z,97218.41
2022-11-09T18:56:29.462Z,97224.00
2022-11-09T18:59:14.799Z,97224.00
2022-11-09T19:02:00.562Z,97218.50
2022-11-09T19:04:46.470Z,97223.41
2022-11-09T19:07:31.926Z,97233.72
2022-11-09T19:10:17.415Z,97229.03
2022-11-09T19:13:03.315Z,97233.81
2022-11-09T19:15:48.868Z,97238.63
2022-11-09T19:18:34.521Z,97237.91
2022-11-09T19:21:30.392Z,97240.75
2022-11-09T19:24:19.488Z,97242.72
2022-11-09T19:27:04.983Z,97243.44
2022-11-09T19:29:50.482Z,97247.50
2022-11-09T19:32:35.974Z,97246.81
2022-11-09T19:35:25.565Z,97250.97
2022-11-09T19:38:12.685Z,97250.38
2022-11-09T19:40:58.561Z,97259.25
2022-11-09T19:43:44.131Z,97256.50
2022-11-09T19:46:31.137Z,97269.66
2022-11-09T19:49:16.519Z,97271.81
2022-11-09T19:52:02.414Z,97280.78
2022-11-09T19:54:47.597Z,97284.28
2022-11-09T19:57:33.180Z,97287.03
2022-11-09T20:00:18.719Z,97293.25
2022-11-09T20:03:04.123Z,97297.31
2022-11-09T20:05:54.005Z,97300.09
2022-11-09T20:08:42.009Z,97309.81
2022-11-09T20:11:47.201Z,97309.09
2022-11-09T20:14:32.967Z,97313.28
2022-11-09T20:17:18.754Z,97320.84
2022-11-09T20:20:05.019Z,97322.88
2022-11-09T20:22:51.750Z,97317.38
2022-11-09T20:25:37.155Z,97320.13
2022-11-09T20:28:22.895Z,97331.16
2022-11-09T20:31:10.148Z,97327.66
2022-11-09T20:33:56.523Z,97326.94
2022-11-09T20:36:42.338Z,97324.19
2022-11-09T20:39:27.510Z,97333.16
2022-11-09T20:42:13.243Z,97335.22
2022-11-09T20:44:58.736Z,97351.03
2022-11-09T20:48:05.022Z,97360.72
2022-11-09T20:50:48.962Z,97351.03
2022-11-09T20:53:34.748Z,97357.88
2022-11-09T20:56:20.545Z,97366.16
2022-11-09T20:59:06.290Z,97380.66
2022-11-09T21:01:51.691Z,97378.50
2022-11-09T21:04:37.449Z,97380.56
2022-11-09T21:07:22.767Z,97386.78
2022-11-09T21:10:08.453Z,97392.91
2022-11-09T21:12:54.423Z,97394.94
2022-11-09T21:15:39.699Z,97386.66
2022-11-09T21:18:25.066Z,97391.44
2022-11-09T21:21:16.045Z,97392.78
2022-11-09T21:24:20.025Z,97399.63
2022-11-09T21:27:23.995Z,97395.44
2022-11-09T21:30:10.134Z,97404.91
2022-11-09T21:32:55.690Z,97409.00
2022-11-09T21:35:41.249Z,97403.47
2022-11-09T21:38:26.427Z,97398.59
2022-11-09T21:41:30.220Z,97421.84
2022-11-09T21:44:15.623Z,97421.72
2022-11-09T21:47:01.835Z,97417.53
2022-11-09T21:49:47.032Z,97421.59
2022-11-09T21:52:32.425Z,97428.44
2022-11-09T21:55:17.864Z,97430.34
2022-11-09T21:58:03.227Z,97430.22
2022-11-09T22:00:48.726Z,97423.28
2022-11-09T22:03:34.623Z,97432.78
2022-11-09T22:06:20.378Z,97437.53
2022-11-09T22:09:07.265Z,97431.22
2022-11-09T22:12:11.429Z,97429.78
2022-11-09T22:15:15.469Z,97444.75
2022-11-09T22:18:00.822Z,97436.41
2022-11-09T22:20:55.334Z,97444.53
2022-11-09T22:23:41.667Z,97454.13
2022-11-09T22:26:28.571Z,97454.72
2022-11-09T22:29:13.955Z,97468.50
2022-11-09T22:31:59.159Z,97464.94
2022-11-09T22:34:44.857Z,97468.28
2022-11-09T22:37:30.071Z,97488.16
2022-11-09T22:40:15.381Z,97480.63
2022-11-09T22:43:00.706Z,97483.97
2022-11-09T22:45:46.042Z,97483.84
2022-11-09T22:48:32.796Z,97483.75
2022-11-09T22:51:19.569Z,97487.09
2022-11-09T22:54:04.703Z,97489.16
2022-11-09T22:56:50.177Z,97498.69
2022-11-09T22:59:35.915Z,97505.53
2022-11-09T23:02:21.799Z,97502.78
2022-11-09T23:05:07.656Z,97506.84
2022-11-09T23:07:55.059Z,97510.94
2022-11-09T23:10:40.853Z,97517.78
2022-11-09T23:13:26.282Z,97519.06
2022-11-09T23:16:12.194Z,97525.31
2022-11-09T23:18:57.410Z,97520.38
2022-11-09T23:21:42.885Z,97527.22
2022-11-09T23:24:46.835Z,97531.41
2022-11-09T23:27:31.862Z,97529.97
2022-11-09T23:30:17.725Z,97534.06
2022-11-09T23:33:03.159Z,97539.56
2022-11-09T23:35:48.619Z,97538.13
2022-11-09T23:38:35.273Z,97541.47
2022-11-09T23:41:20.987Z,97542.19
2022-11-09T23:44:05.944Z,97547.72
2022-11-09T23:46:51.291Z,97554.50
2022-11-09T23:49:36.731Z,97551.03
2022-11-09T23:52:22.010Z,97551.03
2022-11-09T23:55:07.967Z,97556.56
2022-11-09T23:57:53.192Z,97561.34
